Time;durP1;ratioP1;P1;durP2;ratioP2;P2;SDS_P1;SDS_P2;PMS_P1;PMS_P2;Temp;Humidity;BMP_temperature;BMP_pressure;BME280_temperature;BME280_humidity;BME280_pressure;Samples;Min_cycle;Max_cycle;Signal;HPM_P1;HPM_P2
2023/02/21 02:14:40;;;;;;;13.05;11.70;;;;;18.80;100857.00;;;;2073212;28;20682;-54
2023/02/21 02:15:46;;;;;;;15.38;12.68;;;;;18.80;100860.00;;;;2081542;28;20233;-53
2023/02/21 02:16:56;;;;;;;13.95;12.45;;;;;18.80;100863.00;;;;2086059;28;20763;-53
2023/02/21 02:18:02;;;;;;;13.20;11.80;;;;;18.80;100859.00;;;;2074990;28;20225;-50
2023/02/21 02:19:12;;;;;;;13.65;12.25;;;;;18.80;100860.00;;;;2078099;28;20216;-50
2023/02/21 02:20:18;;;;;;;13.70;12.30;;;;;18.80;100864.00;;;;2085467;28;20279;-51
2023/02/21 02:21:38;;;;;;;17.50;14.07;;;;;18.80;100839.00;;;;2085241;28;20219;-52
2023/02/21 02:23:06;;;;;;;14.77;12.00;;;;;18.80;100853.00;;;;2085452;28;20274;-52
2023/02/21 02:24:28;;;;;;;13.73;12.25;;;;;18.80;100749.00;;;;2086467;28;20224;-51
2023/02/21 02:26:03;;;;;;;14.60;13.10;;;;;18.80;100866.00;;;;2085416;28;20343;-51
2023/02/21 02:27:38;;;;;;;15.73;13.55;;;;;18.80;100865.00;;;;2086064;28;20221;-52
2023/02/21 02:28:44;;;;;;;13.65;12.20;;;;;18.80;100879.00;;;;2085155;28;20219;-53
2023/02/21 02:30:22;;;;;;;17.77;13.20;;;;;18.80;100866.00;;;;2086380;28;20684;-51
2023/02/21 02:31:28;;;;;;;14.95;12.32;;;;;18.80;100866.00;;;;2086178;28;21140;-51
2023/02/21 02:33:01;;;;;;;15.00;13.50;;;;;18.80;100861.00;;;;2084853;28;20616;-55
2023/02/21 02:34:23;;;;;;;14.15;12.73;;;;;18.80;100857.00;;;;2085481;28;20223;-50
2023/02/21 02:35:36;;;;;;;15.48;13.80;;;;;18.80;100856.00;;;;2086564;28;20836;-53
2023/02/21 02:36:41;;;;;;;15.60;13.13;;;;;18.80;100863.00;;;;2085914;28;20611;-50
2023/02/21 02:37:53;;;;;;;14.68;13.27;;;;;18.80;100856.00;;;;2061650;28;20221;-52
2023/02/21 02:39:18;;;;;;;14.43;12.93;;;;;18.80;100856.00;;;;2065568;28;20215;-51
2023/02/21 02:40:34;;;;;;;15.23;12.10;;;;;18.80;100826.00;;;;2080628;28;20304;-51
2023/02/21 02:41:50;;;;;;;15.00;13.00;;;;;18.80;100850.00;;;;2065887;28;20220;-50
2023/02/21 02:43:17;;;;;;;16.33;13.85;;;;;18.80;100851.00;;;;2074353;28;20220;-51
2023/02/21 02:44:20;;;;;;;14.77;13.10;;;;;18.80;100833.00;;;;2081021;28;20252;-50
2023/02/21 02:45:47;;;;;;;15.98;14.13;;;;;18.80;100859.00;;;;2077812;28;20217;-51
2023/02/21 02:46:48;;;;;;;14.88;12.90;;;;;18.80;100844.00;;;;2085357;28;20220;-51
2023/02/21 02:47:51;;;;;;;16.90;14.20;;;;;18.80;100850.00;;;;2077086;28;20312;-52
2023/02/21 02:48:59;;;;;;;14.90;13.30;;;;;18.80;100854.00;;;;2060983;28;20222;-54
2023/02/21 02:50:00;;;;;;;14.65;13.10;;;;;18.70;100843.00;;;;2070288;28;20300;-52
2023/02/21 02:51:02;;;;;;;15.97;13.70;;;;;18.80;100874.00;;;;2076461;28;20268;-53
2023/02/21 02:52:06;;;;;;;14.38;12.98;;;;;18.80;100858.00;;;;2076849;28;20674;-51
2023/02/21 02:53:07;;;;;;;14.90;13.38;;;;;18.70;100854.00;;;;2070482;28;20209;-54
2023/02/21 02:54:07;;;;;;;16.23;13.97;;;;;18.70;100843.00;;;;2069254;28;20974;-54
2023/02/21 02:55:29;;;;;;;14.37;12.97;;;;;18.80;100827.00;;;;2077158;28;20217;-54
2023/02/21 02:56:29;;;;;;;15.55;12.65;;;;;18.70;100849.00;;;;2075906;28;20214;-53
2023/02/21 02:57:39;;;;;;;16.03;13.07;;;;;18.70;100844.00;;;;2077422;28;20220;-53
2023/02/21 02:58:43;;;;;;;14.40;12.93;;;;;18.70;100846.00;;;;2085241;28;20673;-52
2023/02/21 02:59:44;;;;;;;14.75;13.10;;;;;18.70;100847.00;;;;2085709;28;20243;-52
2023/02/21 03:00:50;;;;;;;14.40;13.00;;;;;18.80;100838.00;;;;2085931;28;20305;-52
2023/02/21 03:02:02;;;;;;;14.75;12.65;;;;;18.70;100835.00;;;;2077055;28;20216;-53
2023/02/21 03:03:11;;;;;;;14.93;13.35;;;;;18.70;100833.00;;;;2064496;28;20221;-51
2023/02/21 03:04:31;;;;;;;14.77;13.25;;;;;18.70;100835.00;;;;2077970;28;20217;-53
2023/02/21 03:05:53;;;;;;;14.38;12.85;;;;;18.70;100846.00;;;;2084735;28;21008;-53
2023/02/21 03:07:19;;;;;;;15.65;13.18;;;;;18.70;100835.00;;;;2079475;28;20244;-54
2023/02/21 03:08:49;;;;;;;15.05;13.45;;;;;18.70;100819.00;;;;2084654;28;20225;-50
2023/02/21 03:09:52;;;;;;;14.43;12.93;;;;;18.70;100835.00;;;;2076837;28;20667;-52
2023/02/21 03:11:21;;;;;;;14.18;12.27;;;;;18.70;100826.00;;;;2071077;28;20225;-53
2023/02/21 03:12:44;;;;;;;14.63;12.43;;;;;18.70;100844.00;;;;2077931;28;20354;-54
2023/02/21 03:13:53;;;;;;;14.20;12.80;;;;;18.70;100855.00;;;;2085693;28;20227;-53
2023/02/21 03:15:06;;;;;;;15.60;13.85;;;;;18.60;100847.00;;;;2086397;28;20856;-51
2023/02/21 03:16:23;;;;;;;13.43;11.88;;;;;18.70;100835.00;;;;2077379;28;20216;-54
2023/02/21 03:17:24;;;;;;;15.30;13.80;;;;;18.70;100849.00;;;;2073428;28;20614;-53
2023/02/21 03:18:42;;;;;;;12.70;11.40;;;;;18.70;100844.00;;;;2076497;28;20228;-53
2023/02/21 03:19:42;;;;;;;12.95;11.63;;;;;18.70;100839.00;;;;2084821;28;20394;-53
2023/02/21 03:20:43;;;;;;;13.80;12.40;;;;;18.70;100830.00;;;;2085751;28;20219;-53
2023/02/21 03:21:47;;;;;;;13.40;12.10;;;;;18.70;100846.00;;;;2077560;28;20232;-54
2023/02/21 03:22:48;;;;;;;15.02;13.07;;;;;18.70;100844.00;;;;2077863;28;20237;-53
2023/02/21 03:23:49;;;;;;;15.50;13.03;;;;;18.70;100826.00;;;;2085553;28;20215;-54
2023/02/21 03:24:50;;;;;;;13.68;12.27;;;;;18.70;100845.00;;;;2085534;28;20748;-52
2023/02/21 03:25:50;;;;;;;14.80;12.93;;;;;18.70;100845.00;;;;2077627;28;20338;-53
2023/02/21 03:26:52;;;;;;;13.60;12.20;;;;;18.70;100845.00;;;;2068706;28;20268;-54
2023/02/21 03:27:52;;;;;;;14.00;12.60;;;;;18.60;100839.00;;;;2068249;28;21261;-52
2023/02/21 03:28:52;;;;;;;15.40;12.50;;;;;18.60;100819.00;;;;2068399;28;20221;-54
2023/02/21 03:29:53;;;;;;;14.60;13.10;;;;;18.70;100846.00;;;;2061276;28;20250;-51
2023/02/21 03:30:55;;;;;;;13.20;11.80;;;;;18.70;100844.00;;;;2069228;28;20213;-52
2023/02/21 03:33:09;;;;;;;13.70;12.30;;;;;18.60;100856.00;;;;2079116;28;20211;-54
2023/02/21 03:34:10;;;;;;;13.30;12.10;;;;;18.60;100853.00;;;;2078461;28;20237;-53
2023/02/21 03:35:10;;;;;;;14.37;11.83;;;;;18.70;100855.00;;;;2085605;28;20326;-54
2023/02/21 03:36:10;;;;;;;13.80;12.30;;;;;18.70;100850.00;;;;2086353;28;20247;-53
2023/02/21 03:37:33;;;;;;;12.53;11.30;;;;;18.70;100855.00;;;;2085440;28;20603;-53
2023/02/21 03:38:34;;;;;;;14.18;11.52;;;;;18.70;100851.00;;;;2079304;28;20815;-53
2023/02/21 03:39:34;;;;;;;14.47;12.67;;;;;18.60;100851.00;;;;2085253;28;20247;-54
2023/02/21 03:40:34;;;;;;;13.50;12.20;;;;;18.70;100853.00;;;;2086271;28;20217;-53
2023/02/21 03:41:35;;;;;;;14.20;12.70;;;;;18.60;100845.00;;;;2085244;28;20213;-53
2023/02/21 03:42:35;;;;;;;13.47;12.07;;;;;18.60;100849.00;;;;2085528;28;20270;-54
2023/02/21 03:43:35;;;;;;;13.07;11.77;;;;;18.60;100837.00;;;;2086254;28;20217;-54
2023/02/21 03:44:36;;;;;;;13.97;12.30;;;;;18.60;100845.00;;;;2086271;28;20274;-54
2023/02/21 03:45:36;;;;;;;15.43;13.30;;;;;18.60;100848.00;;;;2086158;28;20240;-54
2023/02/21 03:46:36;;;;;;;14.67;13.17;;;;;18.70;100839.00;;;;2086334;28;20227;-54
2023/02/21 03:47:37;;;;;;;14.40;12.90;;;;;18.60;100837.00;;;;2085869;28;20223;-54
2023/02/21 03:48:37;;;;;;;14.83;13.13;;;;;18.60;100839.00;;;;2085525;28;20227;-51
2023/02/21 03:49:37;;;;;;;13.90;12.60;;;;;18.60;100847.00;;;;2085034;28;20345;-53
2023/02/21 03:50:38;;;;;;;13.27;11.87;;;;;18.70;100844.00;;;;2085866;28;20219;-54
2023/02/21 03:51:38;;;;;;;13.03;11.73;;;;;18.70;100834.00;;;;2085300;28;20208;-54
2023/02/21 03:52:38;;;;;;;15.20;13.20;;;;;18.60;100845.00;;;;2086309;28;20880;-54
2023/02/21 03:53:39;;;;;;;14.47;13.10;;;;;18.60;100689.00;;;;2086149;28;20220;-54
2023/02/21 03:54:39;;;;;;;13.47;12.10;;;;;18.70;100833.00;;;;2086402;28;20582;-54
2023/02/21 03:55:40;;;;;;;14.80;13.30;;;;;18.70;100834.00;;;;2085459;28;20278;-54
2023/02/21 03:56:40;;;;;;;13.97;12.57;;;;;18.70;100832.00;;;;2084632;28;20205;-53
2023/02/21 03:57:40;;;;;;;14.80;13.30;;;;;18.60;100839.00;;;;2085865;28;20217;-53
2023/02/21 03:58:41;;;;;;;14.87;13.40;;;;;18.60;100846.00;;;;2084970;28;20850;-54
2023/02/21 03:59:41;;;;;;;14.57;12.63;;;;;18.60;100843.00;;;;2085176;28;20758;-59
2023/02/21 04:00:41;;;;;;;13.03;11.73;;;;;18.60;100844.00;;;;2086483;28;20709;-59
2023/02/21 04:01:42;;;;;;;14.80;13.20;;;;;18.70;100833.00;;;;2086204;28;20217;-54
2023/02/21 04:02:42;;;;;;;12.90;11.50;;;;;18.60;100837.00;;;;2086241;28;20260;-52
2023/02/21 04:03:43;;;;;;;12.70;11.53;;;;;18.60;100833.00;;;;2085688;28;20269;-51
2023/02/21 04:04:43;;;;;;;12.90;11.60;;;;;18.60;100832.00;;;;2085682;28;20270;-54
2023/02/21 04:05:43;;;;;;;13.63;12.33;;;;;18.70;100827.00;;;;2086115;28;20307;-53
2023/02/21 04:06:44;;;;;;;13.47;12.10;;;;;18.60;100837.00;;;;2086485;28;20208;-52
2023/02/21 04:07:45;;;;;;;13.13;11.93;;;;;18.60;100832.00;;;;2086281;28;20224;-51
2023/02/21 04:08:45;;;;;;;12.93;11.68;;;;;18.60;100836.00;;;;2085204;28;20234;-54
2023/02/21 04:09:46;;;;;;;14.53;12.63;;;;;18.60;100838.00;;;;2086393;28;20833;-52
2023/02/21 04:10:47;;;;;;;13.13;11.75;;;;;18.60;100836.00;;;;2086319;28;20977;-52
2023/02/21 04:11:47;;;;;;;13.23;11.90;;;;;18.60;100844.00;;;;2086189;28;20209;-53
2023/02/21 04:12:47;;;;;;;13.23;11.83;;;;;18.60;100849.00;;;;2086163;28;20213;-54
2023/02/21 04:13:48;;;;;;;13.60;12.30;;;;;18.60;100851.00;;;;2086396;28;20282;-54
2023/02/21 04:14:48;;;;;;;13.93;12.50;;;;;18.60;100854.00;;;;2086149;28;20212;-53
2023/02/21 04:15:48;;;;;;;13.03;11.67;;;;;18.60;100852.00;;;;2086597;28;20209;-52
2023/02/21 04:16:49;;;;;;;13.30;12.10;;;;;18.60;100850.00;;;;2087769;28;20279;-51
2023/02/21 04:17:49;;;;;;;12.97;11.73;;;;;18.60;100851.00;;;;2087676;28;20225;-50
2023/02/21 04:18:49;;;;;;;12.93;11.63;;;;;18.60;100856.00;;;;2086908;28;20228;-54
2023/02/21 04:19:50;;;;;;;14.10;12.73;;;;;18.60;100857.00;;;;2087492;28;20876;-53
2023/02/21 04:20:50;;;;;;;12.10;10.90;;;;;18.60;100853.00;;;;2087795;28;20240;-53
2023/02/21 04:21:51;;;;;;;12.77;11.47;;;;;18.60;100852.00;;;;2087554;28;20232;-51
2023/02/21 04:22:51;;;;;;;13.40;12.00;;;;;18.60;100855.00;;;;2087496;28;20282;-53
2023/02/21 04:23:51;;;;;;;12.50;11.27;;;;;18.60;100843.00;;;;2087566;28;20213;-51
2023/02/21 04:24:52;;;;;;;12.93;11.73;;;;;18.60;100852.00;;;;2087313;28;20247;-53
2023/02/21 04:25:52;;;;;;;13.67;12.27;;;;;18.60;100847.00;;;;2087729;28;20213;-50
2023/02/21 04:26:52;;;;;;;14.33;12.83;;;;;18.60;100861.00;;;;2087239;28;20227;-51
2023/02/21 04:27:53;;;;;;;12.90;11.63;;;;;18.60;100851.00;;;;2087347;28;20227;-53
2023/02/21 04:28:53;;;;;;;12.73;11.43;;;;;18.60;100865.00;;;;2086968;28;20704;-51
2023/02/21 04:29:53;;;;;;;13.87;12.47;;;;;18.60;100844.00;;;;2087014;28;20630;-52
2023/02/21 04:30:54;;;;;;;13.33;12.03;;;;;18.60;100858.00;;;;2086980;28;20591;-52
2023/02/21 04:31:54;;;;;;;13.30;12.00;;;;;18.60;100854.00;;;;2087330;28;20700;-53
2023/02/21 04:32:54;;;;;;;13.73;12.37;;;;;18.60;100854.00;;;;2087851;28;20754;-53
2023/02/21 04:33:55;;;;;;;13.90;11.70;;;;;18.60;100847.00;;;;2087498;28;20590;-54
2023/02/21 04:34:55;;;;;;;13.87;12.57;;;;;18.60;100851.00;;;;2087818;28;20231;-53
2023/02/21 04:35:55;;;;;;;13.50;12.20;;;;;18.60;100857.00;;;;2087731;28;20234;-54
2023/02/21 04:36:56;;;;;;;16.17;12.73;;;;;18.60;100853.00;;;;2087247;28;20235;-52
2023/02/21 04:37:56;;;;;;;11.17;10.03;;;;;18.60;100848.00;;;;2086622;28;20214;-51
2023/02/21 04:38:56;;;;;;;14.10;12.57;;;;;18.60;100844.00;;;;2086959;28;20209;-54
2023/02/21 04:39:57;;;;;;;13.10;11.77;;;;;18.60;100854.00;;;;2085729;28;20215;-53
2023/02/21 04:40:58;;;;;;;13.20;11.90;;;;;18.60;100832.00;;;;2087854;28;20845;-53
2023/02/21 04:41:58;;;;;;;11.93;10.73;;;;;18.60;100844.00;;;;2087627;28;20447;-52
2023/02/21 04:42:58;;;;;;;12.63;11.33;;;;;18.60;100844.00;;;;2087662;28;20208;-53
2023/02/21 04:43:59;;;;;;;12.17;10.57;;;;;18.60;100843.00;;;;2087588;28;20290;-53
2023/02/21 04:44:59;;;;;;;12.70;11.50;;;;;18.60;100844.00;;;;2087520;28;20200;-54
2023/02/21 04:45:59;;;;;;;13.33;12.03;;;;;18.60;100836.00;;;;2087459;28;20207;-52
2023/02/21 04:47:00;;;;;;;14.30;12.80;;;;;18.60;100845.00;;;;2087614;28;20212;-51
2023/02/21 04:48:00;;;;;;;12.50;11.30;;;;;18.60;100655.00;;;;2086729;28;20204;-51
2023/02/21 04:49:00;;;;;;;13.77;12.37;;;;;18.60;100835.00;;;;2086941;28;20205;-52
2023/02/21 04:50:01;;;;;;;14.70;12.87;;;;;18.60;100831.00;;;;2086530;28;21218;-52
2023/02/21 04:51:01;;;;;;;13.73;12.37;;;;;18.60;100831.00;;;;2087380;28;20238;-53
2023/02/21 04:52:01;;;;;;;14.30;12.87;;;;;18.60;100828.00;;;;2087029;28;20254;-51
2023/02/21 04:53:02;;;;;;;13.00;11.70;;;;;18.60;100826.00;;;;2087421;28;20209;-51
2023/02/21 04:54:02;;;;;;;13.17;11.90;;;;;18.60;100819.00;;;;2087493;28;20259;-51
2023/02/21 04:55:02;;;;;;;13.93;12.50;;;;;18.50;100843.00;;;;2087262;28;20212;-53
2023/02/21 04:56:03;;;;;;;13.03;11.73;;;;;18.50;100824.00;;;;2087152;28;20572;-53
2023/02/21 04:57:03;;;;;;;12.87;11.67;;;;;18.50;100816.00;;;;2086634;28;20327;-52
2023/02/21 04:58:04;;;;;;;13.07;11.70;;;;;18.50;100813.00;;;;2085925;28;20208;-51
2023/02/21 04:59:04;;;;;;;14.27;12.60;;;;;18.50;100816.00;;;;2087428;28;20243;-50
2023/02/21 05:00:06;;;;;;;13.40;12.00;;;;;18.50;100813.00;;;;2087415;28;20231;-51
2023/02/21 05:01:07;;;;;;;13.15;11.50;;;;;18.50;100820.00;;;;2087174;28;20232;-52
2023/02/21 05:02:07;;;;;;;12.13;10.93;;;;;18.50;100821.00;;;;2077579;28;20340;-52
2023/02/21 05:03:08;;;;;;;13.03;11.73;;;;;18.50;100819.00;;;;2070319;28;20229;-51
2023/02/21 05:04:08;;;;;;;13.47;12.07;;;;;18.50;100827.00;;;;2086671;28;20251;-51
2023/02/21 05:05:09;;;;;;;14.03;12.53;;;;;18.50;100818.00;;;;2086817;28;20602;-49
2023/02/21 05:06:09;;;;;;;15.53;13.93;;;;;18.50;100830.00;;;;2086916;28;20227;-53
2023/02/21 05:07:10;;;;;;;14.43;12.93;;;;;18.50;100819.00;;;;2086822;28;20228;-53
2023/02/21 05:08:10;;;;;;;12.97;11.73;;;;;18.50;100823.00;;;;2086332;28;20266;-52
2023/02/21 05:09:10;;;;;;;14.33;12.53;;;;;18.50;100828.00;;;;2086796;28;20719;-52
2023/02/21 05:10:11;;;;;;;13.97;12.57;;;;;18.50;100832.00;;;;2087325;28;21066;-50
2023/02/21 05:11:11;;;;;;;12.97;11.67;;;;;18.50;100807.00;;;;2087192;28;20912;-51
2023/02/21 05:12:12;;;;;;;12.10;10.90;;;;;18.50;100831.00;;;;2087045;28;20224;-52
2023/02/21 05:13:13;;;;;;;13.57;12.27;;;;;18.20;100827.00;;;;2086912;28;20216;-52
2023/02/21 05:14:13;;;;;;;13.90;12.50;;;;;18.60;100823.00;;;;2087079;28;20270;-51
2023/02/21 05:15:14;;;;;;;13.33;11.93;;;;;18.60;100821.00;;;;2087337;28;20269;-52
2023/02/21 05:16:14;;;;;;;13.73;12.23;;;;;18.50;100819.00;;;;2087168;28;20208;-53
2023/02/21 05:17:14;;;;;;;14.20;12.70;;;;;18.50;100816.00;;;;2086575;28;20216;-52
2023/02/21 05:18:21;;;;;;;13.20;11.80;;;;;18.50;100824.00;;;;2086132;28;20319;-51
2023/02/21 05:19:28;;;;;;;14.75;13.35;;;;;18.50;100823.00;;;;2085633;28;20792;-53
2023/02/21 05:20:29;;;;;;;13.45;12.05;;;;;18.50;100822.00;;;;2078477;28;20373;-51
2023/02/21 05:21:33;;;;;;;15.03;13.23;;;;;18.50;100827.00;;;;2087069;28;20213;-52
2023/02/21 05:22:37;;;;;;;14.63;13.13;;;;;18.50;100823.00;;;;2087088;28;20223;-53
2023/02/21 05:23:39;;;;;;;12.85;11.52;;;;;18.50;100827.00;;;;2085864;28;20215;-51
2023/02/21 05:24:41;;;;;;;14.02;12.50;;;;;18.50;100822.00;;;;2086334;28;20212;-54
2023/02/21 05:25:42;;;;;;;14.02;12.50;;;;;18.50;100837.00;;;;2085907;28;20274;-50
2023/02/21 05:26:42;;;;;;;13.40;11.57;;;;;18.50;100825.00;;;;2086509;28;20328;-51
2023/02/21 05:27:42;;;;;;;13.80;12.40;;;;;18.50;100833.00;;;;2086066;28;20251;-53
2023/02/21 05:28:43;;;;;;;15.87;12.10;;;;;18.50;100835.00;;;;2085460;28;20215;-53
2023/02/21 05:29:50;;;;;;;12.97;11.67;;;;;18.50;100838.00;;;;2087155;28;20221;-52
2023/02/21 05:30:50;;;;;;;14.13;12.55;;;;;18.50;100836.00;;;;2087160;28;20234;-52
2023/02/21 05:31:51;;;;;;;13.47;12.10;;;;;18.50;100834.00;;;;2086837;28;20219;-53
2023/02/21 05:32:51;;;;;;;14.00;12.50;;;;;18.50;100833.00;;;;2087358;28;20216;-52
2023/02/21 05:33:51;;;;;;;13.57;12.17;;;;;18.50;100830.00;;;;2087003;28;20255;-52
2023/02/21 05:34:52;;;;;;;13.50;12.00;;;;;18.50;100836.00;;;;2086675;28;20239;-53
2023/02/21 05:35:52;;;;;;;15.73;13.37;;;;;18.50;100857.00;;;;2086935;28;20624;-51
2023/02/21 05:36:52;;;;;;;14.40;12.70;;;;;18.50;100828.00;;;;2085831;28;21030;-51
2023/02/21 05:37:53;;;;;;;13.90;12.40;;;;;18.50;100839.00;;;;2084087;28;20706;-54
2023/02/21 05:38:54;;;;;;;14.63;12.87;;;;;18.50;100819.00;;;;2085643;28;20700;-52
2023/02/21 05:39:54;;;;;;;14.98;12.32;;;;;18.50;100826.00;;;;2086911;28;20201;-51
2023/02/21 05:40:54;;;;;;;13.97;12.57;;;;;18.50;100821.00;;;;2086564;28;20216;-52
2023/02/21 05:41:55;;;;;;;14.67;13.13;;;;;18.50;100827.00;;;;2086676;28;20248;-50
2023/02/21 05:42:55;;;;;;;15.20;13.60;;;;;18.50;100828.00;;;;2087125;28;20295;-50
2023/02/21 05:43:55;;;;;;;13.37;12.03;;;;;18.50;100823.00;;;;2086794;28;20299;-53
2023/02/21 05:44:56;;;;;;;14.10;12.60;;;;;18.50;100830.00;;;;2086800;28;20217;-52
2023/02/21 05:45:56;;;;;;;14.13;12.63;;;;;18.50;100828.00;;;;2086791;28;20216;-51
2023/02/21 05:46:56;;;;;;;13.70;12.30;;;;;18.50;100834.00;;;;2086840;28;20244;-50
2023/02/21 05:47:59;;;;;;;14.70;13.10;;;;;18.50;100826.00;;;;2086219;28;20217;-51
2023/02/21 05:49:00;;;;;;;14.30;12.80;;;;;18.50;100834.00;;;;2086790;28;20295;-53
2023/02/21 05:50:01;;;;;;;15.27;13.65;;;;;18.50;100833.00;;;;2086603;28;20709;-50
2023/02/21 05:51:01;;;;;;;13.77;12.30;;;;;18.50;100828.00;;;;2086419;28;20300;-53
2023/02/21 05:52:01;;;;;;;14.73;13.23;;;;;18.50;100823.00;;;;2087003;28;20697;-50
2023/02/21 05:53:02;;;;;;;14.57;13.00;;;;;18.50;100824.00;;;;2086723;28;20223;-53
2023/02/21 05:54:03;;;;;;;15.03;13.33;;;;;18.50;100829.00;;;;2086743;28;20715;-53
2023/02/21 05:55:03;;;;;;;14.80;12.98;;;;;18.50;100826.00;;;;2086711;28;20212;-53
2023/02/21 05:56:04;;;;;;;15.50;13.33;;;;;18.50;100819.00;;;;2086726;28;20228;-53
2023/02/21 05:57:04;;;;;;;14.47;12.97;;;;;18.50;100832.00;;;;2086690;28;20216;-53
2023/02/21 05:58:05;;;;;;;15.27;13.17;;;;;18.50;100823.00;;;;2085668;28;20206;-51
2023/02/21 05:59:05;;;;;;;14.67;12.60;;;;;18.50;100825.00;;;;2086920;28;20211;-52
2023/02/21 06:00:06;;;;;;;13.00;11.60;;;;;18.50;100819.00;;;;2086800;28;20350;-52
2023/02/21 06:01:06;;;;;;;15.13;12.97;;;;;18.50;100818.00;;;;2086840;28;20235;-51
2023/02/21 06:02:07;;;;;;;14.57;13.03;;;;;18.50;100819.00;;;;2086215;28;20443;-52
2023/02/21 06:03:07;;;;;;;14.33;11.30;;;;;18.50;100819.00;;;;2086853;28;21056;-51
2023/02/21 06:04:07;;;;;;;13.97;12.00;;;;;18.50;100826.00;;;;2086779;28;20767;-51
2023/02/21 06:05:08;;;;;;;11.93;10.73;;;;;18.50;100825.00;;;;2086634;28;20223;-50
2023/02/21 06:06:08;;;;;;;13.50;11.13;;;;;18.50;100832.00;;;;2086690;28;20212;-51
2023/02/21 06:07:08;;;;;;;10.90;9.80;;;;;18.60;100829.00;;;;2086593;28;20234;-52
2023/02/21 06:08:09;;;;;;;11.67;10.47;;;;;18.60;100824.00;;;;2085479;28;20204;-53
2023/02/21 06:09:09;;;;;;;12.17;10.57;;;;;18.60;100820.00;;;;2086818;28;20219;-52
2023/02/21 06:10:09;;;;;;;10.30;9.30;;;;;18.70;100819.00;;;;2086545;28;20241;-51
2023/02/21 06:11:10;;;;;;;11.60;10.10;;;;;18.70;100828.00;;;;2086826;28;20222;-51
2023/02/21 06:12:10;;;;;;;11.80;9.90;;;;;18.70;100821.00;;;;2086737;28;20293;-50
2023/02/21 06:13:10;;;;;;;10.40;9.30;;;;;18.80;100818.00;;;;2086618;28;20344;-49
2023/02/21 06:14:16;;;;;;;11.00;9.50;;;;;18.80;100833.00;;;;2086823;28;20220;-51
2023/02/21 06:15:17;;;;;;;9.88;8.88;;;;;18.80;100821.00;;;;2086756;28;20213;-50
2023/02/21 06:16:17;;;;;;;11.20;9.50;;;;;18.80;100823.00;;;;2077629;28;20212;-52
2023/02/21 06:17:17;;;;;;;10.40;9.10;;;;;18.80;100815.00;;;;2077515;28;20221;-53
2023/02/21 06:18:18;;;;;;;9.83;8.37;;;;;18.90;100833.00;;;;2085128;28;20228;-51
2023/02/21 06:19:18;;;;;;;9.10;8.10;;;;;18.90;100826.00;;;;2084907;28;20278;-51
2023/02/21 06:20:18;;;;;;;9.70;8.70;;;;;18.90;100827.00;;;;2086031;28;20831;-52
2023/02/21 06:21:19;;;;;;;8.90;8.00;;;;;18.90;100830.00;;;;2086659;28;20208;-51
2023/02/21 06:22:19;;;;;;;8.83;7.93;;;;;19.00;100852.00;;;;2086152;28;20239;-54
2023/02/21 06:23:19;;;;;;;9.13;7.93;;;;;18.90;100828.00;;;;2084946;28;20621;-55
2023/02/21 06:24:20;;;;;;;9.10;8.00;;;;;19.00;100826.00;;;;2086412;28;20591;-53
2023/02/21 06:25:20;;;;;;;9.73;7.97;;;;;19.00;100816.00;;;;2086575;28;20717;-51
2023/02/21 06:26:21;;;;;;;8.83;7.47;;;;;18.80;100818.00;;;;2085970;28;20581;-53
2023/02/21 06:27:21;;;;;;;16.20;10.80;;;;;19.00;100822.00;;;;2086295;28;20348;-52
2023/02/21 06:28:26;;;;;;;12.07;7.80;;;;;19.10;100827.00;;;;2085795;28;20324;-51
2023/02/21 06:29:27;;;;;;;10.20;7.80;;;;;19.10;100830.00;;;;2086451;28;20216;-51
2023/02/21 06:30:27;;;;;;;12.30;9.40;;;;;19.10;100818.00;;;;2086614;28;20831;-51
2023/02/21 06:31:27;;;;;;;11.13;8.30;;;;;19.20;100820.00;;;;2086649;28;20688;-52
2023/02/21 06:32:28;;;;;;;15.30;9.83;;;;;19.20;100824.00;;;;2086663;28;20685;-52
2023/02/21 06:33:28;;;;;;;17.57;10.40;;;;;19.20;100824.00;;;;2086483;28;20208;-53
2023/02/21 06:34:28;;;;;;;13.70;9.17;;;;;19.30;100827.00;;;;2086057;28;20212;-53
2023/02/21 06:35:29;;;;;;;13.63;10.40;;;;;19.30;100827.00;;;;2086422;28;20217;-52
2023/02/21 06:36:29;;;;;;;10.80;8.83;;;;;19.30;100824.00;;;;2086314;28;20238;-53
2023/02/21 06:37:29;;;;;;;13.00;10.07;;;;;19.30;100830.00;;;;2086283;28;20216;-52
2023/02/21 06:38:30;;;;;;;12.30;9.87;;;;;19.30;100829.00;;;;2085740;28;20216;-51
2023/02/21 06:39:30;;;;;;;13.40;9.80;;;;;19.30;100823.00;;;;2086457;28;20266;-52
2023/02/21 06:40:30;;;;;;;16.77;10.70;;;;;19.30;100832.00;;;;2086178;28;20220;-53
2023/02/21 06:41:31;;;;;;;11.80;10.10;;;;;19.00;100821.00;;;;2086559;28;20212;-53
2023/02/21 06:42:31;;;;;;;17.00;13.87;;;;;19.30;100819.00;;;;2086659;28;20217;-53
2023/02/21 06:43:31;;;;;;;19.37;14.50;;;;;19.20;100822.00;;;;2086461;28;20216;-55
2023/02/21 06:44:32;;;;;;;19.30;16.53;;;;;19.10;100813.00;;;;2086664;28;20240;-53
2023/02/21 06:45:32;;;;;;;16.97;14.43;;;;;19.10;100819.00;;;;2085947;28;20883;-53
2023/02/21 06:46:35;;;;;;;19.43;15.97;;;;;19.00;100812.00;;;;2084306;28;20290;-53
2023/02/21 06:47:35;;;;;;;19.05;15.35;;;;;19.00;100819.00;;;;2085348;28;20219;-54
2023/02/21 06:48:35;;;;;;;20.90;15.40;;;;;19.00;100818.00;;;;2084777;28;20689;-52
2023/02/21 06:49:36;;;;;;;20.87;15.57;;;;;19.00;100811.00;;;;2086323;28;20681;-52
2023/02/21 06:50:36;;;;;;;21.10;16.23;;;;;19.00;100823.00;;;;2086179;28;20728;-53
2023/02/21 06:51:39;;;;;;;19.30;16.10;;;;;19.00;100815.00;;;;2086651;28;20729;-51
2023/02/21 06:52:39;;;;;;;18.35;15.45;;;;;19.00;100821.00;;;;2086323;28;20232;-54
2023/02/21 06:53:40;;;;;;;21.30;16.13;;;;;19.00;100821.00;;;;2086460;28;20443;-53
2023/02/21 06:54:41;;;;;;;19.30;15.57;;;;;19.00;100823.00;;;;2086406;28;20220;-52
2023/02/21 06:55:41;;;;;;;17.37;15.50;;;;;19.00;100811.00;;;;2082503;28;20534;-52
2023/02/21 06:56:43;;;;;;;20.27;16.40;;;;;19.00;100807.00;;;;2085762;28;20212;-53
2023/02/21 06:57:43;;;;;;;21.50;16.13;;;;;19.00;100833.00;;;;2085673;28;20220;-53
2023/02/21 06:58:44;;;;;;;18.73;15.03;;;;;19.00;100813.00;;;;2085279;28;21006;-55
2023/02/21 06:59:44;;;;;;;20.70;16.57;;;;;19.00;100818.00;;;;2085330;28;21066;-53
2023/02/21 07:00:44;;;;;;;19.83;17.47;;;;;19.10;100817.00;;;;2086096;28;20220;-51
2023/02/21 07:01:45;;;;;;;21.23;17.63;;;;;19.10;100818.00;;;;2086100;28;20267;-52
2023/02/21 07:02:45;;;;;;;21.83;18.90;;;;;19.10;100815.00;;;;2085999;28;20220;-53
2023/02/21 07:03:46;;;;;;;27.57;23.47;;;;;19.10;100816.00;;;;2086224;28;20220;-53
2023/02/21 07:04:46;;;;;;;39.40;32.47;;;;;19.00;100813.00;;;;2084921;28;20216;-52
2023/02/21 07:05:47;;;;;;;47.87;39.97;;;;;19.00;100818.00;;;;2086473;28;20197;-52
2023/02/21 07:06:47;;;;;;;62.70;47.47;;;;;19.00;100820.00;;;;2086396;28;20201;-52
2023/02/21 07:07:47;;;;;;;54.50;44.67;;;;;19.00;100819.00;;;;2085771;28;20223;-53
2023/02/21 07:08:48;;;;;;;53.73;43.23;;;;;19.00;100819.00;;;;2085916;28;20295;-52
2023/02/21 07:09:48;;;;;;;76.73;52.87;;;;;19.10;100829.00;;;;2086184;28;20204;-53
2023/02/21 07:10:48;;;;;;;59.37;45.70;;;;;19.10;100838.00;;;;2086198;28;20216;-53
2023/02/21 07:11:49;;;;;;;75.17;56.00;;;;;19.10;100832.00;;;;2085842;28;20236;-53
2023/02/21 07:12:49;;;;;;;76.93;56.23;;;;;19.10;100833.00;;;;2085723;28;20666;-52
2023/02/21 07:13:52;;;;;;;79.80;57.00;;;;;19.00;100832.00;;;;2086190;28;20354;-53
2023/02/21 07:14:56;;;;;;;85.55;62.47;;;;;19.00;100833.00;;;;2086460;28;20220;-53
2023/02/21 07:15:56;;;;;;;74.13;53.70;;;;;19.00;100833.00;;;;2086416;28;20254;-52
2023/02/21 07:16:56;;;;;;;72.80;55.67;;;;;19.10;100830.00;;;;2086279;28;20211;-52
2023/02/21 07:17:57;;;;;;;80.23;59.13;;;;;19.10;100829.00;;;;2085289;28;20258;-54
2023/02/21 07:18:57;;;;;;;71.33;54.27;;;;;19.10;100830.00;;;;2085600;28;20205;-52
2023/02/21 07:19:57;;;;;;;81.60;56.50;;;;;19.10;100834.00;;;;2086156;28;20212;-53